Time;durP1;ratioP1;P1;durP2;ratioP2;P2;SDS_P1;SDS_P2;PMS_P1;PMS_P2;Temp;Humidity;BMP_temperature;BMP_pressure;BME280_temperature;BME280_humidity;BME280_pressure;Samples;Min_cycle;Max_cycle;Signal;HPM_P1;HPM_P2
2022/09/13 00:00:34;;;;;;;13.57;12.25;;;18.20;99.90;;;;;;5079192;28;20294;-75
2022/09/13 00:03:01;;;;;;;14.93;13.37;;;18.20;99.90;;;;;;5082510;28;20040;-75
2022/09/13 00:05:26;;;;;;;15.35;13.77;;;18.10;99.90;;;;;;5084201;28;20139;-74
2022/09/13 00:07:52;;;;;;;16.58;14.18;;;18.00;99.90;;;;;;5076053;28;20143;-74
2022/09/13 00:10:19;;;;;;;14.43;12.93;;;18.00;99.90;;;;;;5076199;28;20060;-74
2022/09/13 00:12:46;;;;;;;13.68;12.38;;;17.90;99.90;;;;;;5085072;28;20493;-74
2022/09/13 00:15:11;;;;;;;13.73;12.52;;;17.90;99.90;;;;;;5082634;28;20055;-75
2022/09/13 00:17:37;;;;;;;14.23;12.82;;;17.80;99.90;;;;;;5082456;28;20507;-75
2022/09/13 00:20:03;;;;;;;14.35;12.85;;;17.70;99.90;;;;;;5083376;28;20135;-74
2022/09/13 00:22:29;;;;;;;15.85;14.05;;;17.70;99.90;;;;;;5090121;28;20052;-74
2022/09/13 00:24:55;;;;;;;17.98;14.02;;;17.60;99.90;;;;;;5064694;28;20536;-73
2022/09/13 00:27:21;;;;;;;15.50;13.90;;;17.50;99.90;;;;;;5082524;28;20044;-73
2022/09/13 00:29:46;;;;;;;15.98;13.50;;;17.50;99.90;;;;;;5084767;28;20407;-73
2022/09/13 00:32:12;;;;;;;14.45;13.02;;;17.50;99.90;;;;;;5083226;28;20122;-74
2022/09/13 00:34:37;;;;;;;14.48;13.00;;;17.40;99.90;;;;;;5080291;28;20047;-74
2022/09/13 00:37:03;;;;;;;16.30;13.85;;;17.40;99.90;;;;;;5081150;28;20508;-73
2022/09/13 00:39:29;;;;;;;16.23;12.80;;;17.40;99.90;;;;;;5077777;28;20072;-73
2022/09/13 00:41:55;;;;;;;14.07;12.68;;;17.40;99.90;;;;;;5072875;28;20064;-74
2022/09/13 00:44:59;;;;;;;15.85;13.50;;;17.30;99.90;;;;;;5084681;28;20048;-73
2022/09/13 00:47:43;;;;;;;19.80;13.45;;;17.40;99.90;;;;;;5085839;28;20044;-74
2022/09/13 00:50:33;;;;;;;17.10;13.15;;;17.40;99.90;;;;;;5081357;28;20039;-74
2022/09/13 00:53:24;;;;;;;13.38;12.07;;;17.40;99.90;;;;;;5082561;28;20126;-73
2022/09/13 00:56:00;;;;;;;14.07;12.68;;;17.40;99.90;;;;;;5083868;28;20043;-73
2022/09/13 00:58:32;;;;;;;13.65;11.93;;;17.30;99.90;;;;;;5083653;28;20043;-74
2022/09/13 01:01:01;;;;;;;12.38;11.25;;;17.40;99.90;;;;;;5071445;28;20040;-73
2022/09/13 01:03:30;;;;;;;12.35;11.15;;;17.40;99.90;;;;;;5085692;28;20032;-74
2022/09/13 01:06:12;;;;;;;13.55;12.00;;;17.40;99.90;;;;;;5085266;28;20500;-74
2022/09/13 01:08:40;;;;;;;12.30;11.00;;;17.40;99.90;;;;;;5077200;28;20044;-74
2022/09/13 01:11:12;;;;;;;13.63;12.20;;;17.40;99.90;;;;;;5082567;28;20953;-74
2022/09/13 01:13:38;;;;;;;12.75;11.60;;;17.40;99.90;;;;;;5085192;28;20041;-73
2022/09/13 01:16:05;;;;;;;13.00;11.68;;;17.40;99.90;;;;;;5072342;28;20052;-73
2022/09/13 01:18:30;;;;;;;13.77;12.48;;;17.40;99.90;;;;;;5071343;28;20048;-73
2022/09/13 01:21:33;;;;;;;13.85;12.48;;;17.40;99.90;;;;;;5084070;28;20090;-74
2022/09/13 01:24:02;;;;;;;12.88;11.68;;;17.50;99.90;;;;;;5088725;28;20036;-73
2022/09/13 01:26:41;;;;;;;12.52;11.40;;;17.40;99.90;;;;;;5084776;28;20048;-73
2022/09/13 01:29:16;;;;;;;12.70;11.50;;;17.40;99.90;;;;;;5082193;28;20043;-72
2022/09/13 01:31:56;;;;;;;13.23;11.93;;;17.40;99.90;;;;;;5085922;28;20046;-72
2022/09/13 01:34:30;;;;;;;13.15;11.95;;;17.40;99.90;;;;;;5100558;28;20051;-73
2022/09/13 01:37:09;;;;;;;14.10;11.95;;;17.40;99.90;;;;;;5100500;28;20039;-72
2022/09/13 01:40:01;;;;;;;14.73;11.73;;;17.40;99.90;;;;;;5100702;28;20040;-72
2022/09/13 01:42:50;;;;;;;13.70;12.43;;;17.40;99.90;;;;;;5103331;28;20546;-73
2022/09/13 01:45:35;;;;;;;14.82;12.80;;;17.30;99.90;;;;;;5102792;28;20069;-73
2022/09/13 01:48:19;;;;;;;15.02;13.52;;;17.30;99.90;;;;;;5103430;28;20039;-74
2022/09/13 01:50:49;;;;;;;16.90;15.10;;;17.30;99.90;;;;;;5099443;28;20067;-74
2022/09/13 01:53:26;;;;;;;15.68;14.18;;;17.30;99.90;;;;;;5111566;28;20375;-72
2022/09/13 01:56:01;;;;;;;16.35;14.77;;;17.30;99.90;;;;;;5118529;28;20036;-73
2022/09/13 01:58:45;;;;;;;15.20;13.70;;;17.30;99.90;;;;;;5113136;28;20578;-73
2022/09/13 02:01:20;;;;;;;16.25;14.65;;;17.30;99.90;;;;;;5112829;28;20103;-72
2022/09/13 02:04:03;;;;;;;15.38;13.82;;;17.30;99.90;;;;;;5113973;28;20035;-73
2022/09/13 02:06:44;;;;;;;16.02;14.50;;;17.30;99.90;;;;;;5096709;28;20076;-73
2022/09/13 02:09:14;;;;;;;17.02;15.43;;;17.30;99.90;;;;;;5094698;28;20538;-72
2022/09/13 02:11:44;;;;;;;17.45;15.85;;;17.30;99.90;;;;;;5088293;28;20040;-73
2022/09/13 02:14:15;;;;;;;19.13;17.13;;;17.30;99.90;;;;;;5089358;28;20094;-73
2022/09/13 02:17:15;;;;;;;18.48;16.70;;;17.30;99.90;;;;;;5082620;28;20044;-73
2022/09/13 02:19:51;;;;;;;17.55;15.85;;;17.40;99.90;;;;;;5089285;28;20056;-73
2022/09/13 02:22:22;;;;;;;21.40;18.50;;;17.30;99.90;;;;;;5088940;28;20051;-73
2022/09/13 02:24:53;;;;;;;17.33;15.45;;;17.30;99.90;;;;;;5087261;28;20044;-73
2022/09/13 02:27:23;;;;;;;18.88;16.90;;;17.30;99.90;;;;;;5094670;28;20130;-72
2022/09/13 02:29:54;;;;;;;18.48;16.75;;;17.40;99.90;;;;;;5089688;28;20525;-73
2022/09/13 02:32:30;;;;;;;17.92;16.10;;;17.40;99.90;;;;;;5085607;28;20055;-72
2022/09/13 02:35:04;;;;;;;19.17;17.23;;;17.30;99.90;;;;;;5085256;28;20119;-73
2022/09/13 02:37:33;;;;;;;19.20;17.40;;;17.30;99.90;;;;;;5086820;28;20055;-73
2022/09/13 02:40:04;;;;;;;19.42;17.42;;;17.30;99.90;;;;;;5086221;28;20052;-72
2022/09/13 02:42:36;;;;;;;20.33;18.23;;;17.30;99.90;;;;;;5085835;28;20052;-73
2022/09/13 02:45:05;;;;;;;19.92;17.92;;;17.30;99.90;;;;;;5085589;28;20043;-72
2022/09/13 02:47:36;;;;;;;19.67;17.58;;;17.30;99.90;;;;;;5084575;28;20083;-73
2022/09/13 02:50:27;;;;;;;22.40;19.25;;;17.30;99.90;;;;;;5086727;28;20044;-72
2022/09/13 02:53:15;;;;;;;20.45;18.42;;;17.30;99.90;;;;;;5085927;28;20075;-72
2022/09/13 02:56:04;;;;;;;22.23;19.92;;;17.20;99.90;;;;;;5082099;28;20055;-73
2022/09/13 02:58:56;;;;;;;22.08;19.70;;;17.30;99.90;;;;;;5084752;28;20036;-72
2022/09/13 03:01:23;;;;;;;20.40;18.02;;;17.30;99.90;;;;;;5078911;28;20090;-73
2022/09/13 03:03:52;;;;;;;19.65;17.75;;;17.20;99.90;;;;;;5084446;28;20044;-72
2022/09/13 03:06:23;;;;;;;20.42;18.40;;;17.30;99.90;;;;;;5084034;28;20036;-73
2022/09/13 03:08:48;;;;;;;20.83;18.70;;;17.30;99.90;;;;;;5083317;28;20035;-73
2022/09/13 03:11:20;;;;;;;20.38;17.52;;;17.30;99.90;;;;;;5090364;28;20036;-71
2022/09/13 03:14:04;;;;;;;20.88;18.75;;;17.30;99.90;;;;;;5098433;28;20044;-72
2022/09/13 03:16:48;;;;;;;19.63;17.35;;;17.30;99.90;;;;;;5102031;28;20044;-73
2022/09/13 03:19:35;;;;;;;20.95;18.75;;;17.30;99.90;;;;;;5085843;28;20032;-74
2022/09/13 03:22:22;;;;;;;19.77;17.87;;;17.30;99.90;;;;;;5084288;28;20415;-71
2022/09/13 03:24:54;;;;;;;;;;;17.30;99.90;;;;;;5085507;28;20313;-69
2022/09/13 03:27:43;;;;;;;23.33;19.80;;;17.30;99.90;;;;;;5089020;28;20364;-71
2022/09/13 03:30:14;;;;;;;20.83;18.65;;;17.30;99.90;;;;;;5082903;28;20078;-71
2022/09/13 03:32:56;;;;;;;21.98;19.58;;;17.30;99.90;;;;;;5094743;28;20058;-74
2022/09/13 03:35:53;;;;;;;22.50;19.05;;;17.30;99.90;;;;;;5087643;28;20040;-71
2022/09/13 03:38:43;;;;;;;21.58;19.38;;;17.20;99.90;;;;;;5061050;28;20063;-72
2022/09/13 03:41:18;;;;;;;21.25;19.17;;;17.30;99.90;;;;;;5086742;28;20043;-73
2022/09/13 03:44:01;;;;;;;19.45;17.40;;;17.30;99.90;;;;;;5087813;28;20411;-72
2022/09/13 03:46:40;;;;;;;20.00;17.90;;;17.30;99.90;;;;;;5086152;28;20370;-72
2022/09/13 03:49:15;;;;;;;21.63;17.92;;;17.30;99.90;;;;;;5085696;28;20055;-72
2022/09/13 03:51:44;;;;;;;20.73;18.50;;;17.30;99.90;;;;;;5083350;28;20032;-71
2022/09/13 03:54:18;;;;;;;22.58;18.90;;;17.30;99.90;;;;;;5086210;28;20131;-73
2022/09/13 03:57:04;;;;;;;19.75;17.67;;;;;;;;;;5084757;28;20089;-73
2022/09/13 03:59:30;;;;;;;20.17;18.08;;;17.30;99.90;;;;;;5075810;28;20513;-72
2022/09/13 04:01:55;;;;;;;23.25;20.05;;;17.30;99.90;;;;;;5073911;28;20056;-73
2022/09/13 04:04:21;;;;;;;22.80;19.02;;;17.30;99.90;;;;;;5085854;28;20126;-72
2022/09/13 04:06:47;;;;;;;21.02;18.67;;;17.30;99.90;;;;;;5083662;28;20064;-72
2022/09/13 04:09:12;;;;;;;21.30;18.88;;;17.40;99.90;;;;;;5071033;28;20429;-72
2022/09/13 04:11:39;;;;;;;21.80;19.55;;;17.40;99.90;;;;;;5085889;28;20031;-72
2022/09/13 04:14:05;;;;;;;21.45;19.25;;;17.30;99.90;;;;;;5076219;28;20047;-72
2022/09/13 04:16:31;;;;;;;19.90;17.63;;;17.40;99.90;;;;;;5065896;28;20051;-72
2022/09/13 04:18:59;;;;;;;20.02;17.77;;;17.30;99.90;;;;;;5087765;28;20479;-72
2022/09/13 04:21:25;;;;;;;21.67;19.42;;;17.30;99.90;;;;;;5088236;28;20040;-71
2022/09/13 04:23:50;;;;;;;21.38;19.00;;;17.40;99.90;;;;;;5094446;28;20032;-72
2022/09/13 04:26:16;;;;;;;21.67;18.73;;;17.30;99.90;;;;;;5093644;28;20070;-71
2022/09/13 04:28:42;;;;;;;21.08;17.80;;;17.30;99.90;;;;;;5092416;28;20036;-71
2022/09/13 04:31:07;;;;;;;20.42;17.95;;;17.30;99.90;;;;;;5090911;28;20044;-72
2022/09/13 04:33:33;;;;;;;21.83;19.23;;;17.30;99.90;;;;;;5092648;28;20040;-72
2022/09/13 04:35:59;;;;;;;21.20;18.92;;;17.40;99.90;;;;;;5093185;28;20043;-71
2022/09/13 04:38:25;;;;;;;20.73;18.52;;;17.30;99.90;;;;;;5086701;28;20036;-71
2022/09/13 04:40:53;;;;;;;20.50;18.40;;;17.40;99.90;;;;;;5076182;28;20097;-70
2022/09/13 04:43:19;;;;;;;;;;;17.40;99.90;;;;;;5085407;28;20121;-71
2022/09/13 04:45:45;;;;;;;21.75;19.55;;;;;;;;;;5083560;28;19927;-71
2022/09/13 04:48:11;;;;;;;22.13;18.80;;;17.40;99.90;;;;;;5057893;28;20465;-72
2022/09/13 04:50:36;;;;;;;20.67;18.05;;;17.30;99.90;;;;;;5083316;28;20075;-71
2022/09/13 04:53:02;;;;;;;21.88;18.83;;;17.30;99.90;;;;;;5084120;28;20888;-72
2022/09/13 04:55:28;;;;;;;19.92;17.83;;;17.40;99.90;;;;;;5073434;28;20443;-71
2022/09/13 04:57:55;;;;;;;19.85;17.85;;;17.30;99.90;;;;;;5085084;28;21730;-70
2022/09/13 05:00:21;;;;;;;21.90;19.70;;;17.30;99.90;;;;;;5085098;28;20036;-72
2022/09/13 05:02:47;;;;;;;22.05;19.77;;;17.40;99.90;;;;;;5083811;28;20467;-71
2022/09/13 05:05:13;;;;;;;22.52;18.58;;;17.40;99.90;;;;;;5071941;28;20553;-71
2022/09/13 05:07:39;;;;;;;22.27;19.95;;;17.30;99.90;;;;;;5085297;28;20047;-71
2022/09/13 05:10:05;;;;;;;23.52;19.90;;;17.40;99.90;;;;;;5083240;28;20502;-71
2022/09/13 05:12:30;;;;;;;22.30;19.67;;;17.40;99.90;;;;;;5075304;28;20056;-70
2022/09/13 05:14:56;;;;;;;22.17;19.77;;;17.40;99.90;;;;;;5088127;28;20078;-73
2022/09/13 05:17:22;;;;;;;22.25;19.75;;;17.40;99.90;;;;;;5095534;28;20047;-72
2022/09/13 05:19:48;;;;;;;22.25;19.48;;;17.30;99.90;;;;;;5091274;28;20101;-72
2022/09/13 05:22:13;;;;;;;21.63;19.33;;;17.40;99.90;;;;;;5088959;28;20051;-72
2022/09/13 05:24:39;;;;;;;21.77;19.45;;;17.40;99.90;;;;;;5090023;28;20043;-72
2022/09/13 05:27:04;;;;;;;20.30;18.17;;;17.40;99.90;;;;;;5088179;28;20040;-72
2022/09/13 05:29:30;;;;;;;21.30;19.00;;;17.40;99.90;;;;;;5085308;28;20039;-73
2022/09/13 05:31:56;;;;;;;22.45;18.40;;;17.40;99.90;;;;;;5089440;28;20502;-72
2022/09/13 05:34:21;;;;;;;21.92;18.30;;;17.50;99.90;;;;;;5087034;28;20070;-73
2022/09/13 05:36:49;;;;;;;20.67;18.42;;;17.40;99.90;;;;;;5095630;28;20064;-73
2022/09/13 05:39:21;;;;;;;21.00;18.67;;;17.40;99.90;;;;;;5104097;28;20044;-74
2022/09/13 05:41:47;;;;;;;23.40;18.75;;;17.40;99.90;;;;;;5106253;28;20040;-74
2022/09/13 05:44:12;;;;;;;21.83;19.48;;;17.50;99.90;;;;;;5110464;28;20050;-75
2022/09/13 05:46:38;;;;;;;21.95;19.27;;;17.40;99.90;;;;;;5103733;28;20039;-75
2022/09/13 05:49:04;;;;;;;20.75;18.40;;;17.50;99.90;;;;;;5094969;28;20536;-75
2022/09/13 05:51:30;;;;;;;20.95;18.67;;;17.50;99.90;;;;;;5083925;28;20049;-75
2022/09/13 05:53:58;;;;;;;21.58;19.00;;;17.50;99.90;;;;;;5089921;28;20040;-75
2022/09/13 05:56:26;;;;;;;19.85;17.75;;;17.50;99.90;;;;;;5094340;28;20051;-75
2022/09/13 05:58:54;;;;;;;21.42;19.13;;;17.60;99.90;;;;;;5089090;28;20048;-75
2022/09/13 06:01:25;;;;;;;23.33;19.83;;;17.60;99.90;;;;;;5071041;28;20083;-75
2022/09/13 06:03:55;;;;;;;23.85;18.75;;;17.60;99.90;;;;;;5072204;28;20303;-75
2022/09/13 06:06:22;;;;;;;21.60;19.33;;;17.60;99.90;;;;;;5086835;28;20048;-75
2022/09/13 06:08:51;;;;;;;23.63;20.38;;;17.60;99.90;;;;;;5088327;28;20036;-74
2022/09/13 06:11:16;;;;;;;22.20;19.85;;;17.60;99.90;;;;;;5082821;28;20042;-74
2022/09/13 06:13:42;;;;;;;23.10;20.67;;;17.60;99.90;;;;;;5081884;28;20036;-73
2022/09/13 06:16:10;;;;;;;24.42;19.70;;;17.70;99.90;;;;;;5084267;28;20036;-73
2022/09/13 06:18:36;;;;;;;22.90;19.52;;;17.70;99.90;;;;;;5084514;28;20044;-73
2022/09/13 06:21:05;;;;;;;25.50;21.00;;;17.70;99.90;;;;;;5085230;28;20062;-73
2022/09/13 06:23:31;;;;;;;23.95;21.20;;;17.70;99.90;;;;;;5085696;28;20044;-73
2022/09/13 06:26:01;;;;;;;22.02;19.75;;;17.70;99.90;;;;;;5084955;28;20044;-73
2022/09/13 06:28:27;;;;;;;27.48;19.20;;;17.80;99.90;;;;;;5090616;28;20044;-73
2022/09/13 06:31:02;;;;;;;22.10;19.90;;;17.80;99.90;;;;;;5091902;28;20039;-73
2022/09/13 06:33:28;;;;;;;22.20;19.90;;;17.80;99.90;;;;;;5095854;28;20048;-73
2022/09/13 06:35:54;;;;;;;22.08;19.80;;;17.80;99.90;;;;;;5086264;28;20043;-71
2022/09/13 06:38:19;;;;;;;22.70;19.70;;;17.80;99.90;;;;;;5081130;28;20075;-71
2022/09/13 06:40:45;;;;;;;21.90;19.10;;;17.90;99.90;;;;;;5079436;28;20044;-72
2022/09/13 06:43:11;;;;;;;22.10;19.77;;;17.90;99.90;;;;;;5080369;28;20047;-71
2022/09/13 06:45:36;;;;;;;21.83;19.63;;;17.90;99.90;;;;;;5084201;28;20548;-71
2022/09/13 06:48:02;;;;;;;20.85;18.77;;;18.00;99.90;;;;;;5086110;28;20513;-71
2022/09/13 06:50:28;;;;;;;21.77;17.42;;;18.00;99.90;;;;;;5074297;28;20036;-72
2022/09/13 06:52:56;;;;;;;20.85;17.23;;;18.00;99.90;;;;;;5089375;28;20141;-72
2022/09/13 06:55:22;;;;;;;19.13;17.13;;;18.00;99.90;;;;;;5090562;28;20410;-72
2022/09/13 06:57:47;;;;;;;19.98;17.50;;;18.10;99.90;;;;;;5095950;28;20501;-73
2022/09/13 07:00:14;;;;;;;21.40;15.57;;;;;;;;;;5099779;28;20036;-74
2022/09/13 07:02:40;;;;;;;18.67;15.77;;;18.10;99.90;;;;;;5084493;28;20040;-73
2022/09/13 07:05:06;;;;;;;20.73;15.68;;;18.10;99.90;;;;;;5087857;28;21427;-73
2022/09/13 07:07:32;;;;;;;16.00;13.57;;;18.10;99.90;;;;;;5076747;28;20094;-69
2022/09/13 07:09:59;;;;;;;18.80;13.45;;;18.10;99.90;;;;;;5070429;28;20459;-73
2022/09/13 07:12:25;;;;;;;13.13;9.93;;;18.20;99.90;;;;;;5070582;28;20036;-70
2022/09/13 07:14:51;;;;;;;11.10;9.68;;;18.20;99.90;;;;;;5074956;28;20043;-72
2022/09/13 07:17:17;;;;;;;13.05;9.35;;;18.30;99.90;;;;;;5075972;28;20047;-71
2022/09/13 07:19:42;;;;;;;11.32;8.95;;;18.50;99.90;;;;;;5073817;28;20527;-72
2022/09/13 07:22:08;;;;;;;9.27;7.93;;;18.50;99.90;;;;;;5076112;28;20686;-72
2022/09/13 07:24:33;;;;;;;7.00;6.30;;;18.50;99.90;;;;;;5076457;28;20364;-76
2022/09/13 07:26:59;;;;;;;9.00;5.90;;;18.50;99.90;;;;;;5076954;28;20044;-68
2022/09/13 07:29:25;;;;;;;10.43;4.25;;;18.50;99.90;;;;;;5077116;28;20974;-68
2022/09/13 07:31:53;;;;;;;6.22;3.67;;;18.50;99.90;;;;;;5076481;28;20456;-71
2022/09/13 07:34:21;;;;;;;6.40;3.90;;;18.40;99.90;;;;;;5073974;28;20063;-71
2022/09/13 07:36:48;;;;;;;6.32;3.00;;;18.40;99.90;;;;;;5070701;28;20390;-69
2022/09/13 07:39:16;;;;;;;2.47;1.73;;;18.40;99.90;;;;;;5069802;28;20045;-69
2022/09/13 07:41:43;;;;;;;3.20;2.10;;;18.20;99.90;;;;;;5074842;28;20048;-69
2022/09/13 07:44:10;;;;;;;6.65;2.50;;;18.20;99.90;;;;;;5054044;28;22923;-69
2022/09/13 07:46:40;;;;;;;5.25;2.58;;;18.20;99.90;;;;;;5071470;28;20036;-69
2022/09/13 07:49:06;;;;;;;3.58;2.30;;;18.10;99.90;;;;;;5072664;28;20063;-70
2022/09/13 07:51:35;;;;;;;4.28;2.70;;;18.20;99.90;;;;;;5074218;28;20451;-70
2022/09/13 07:54:04;;;;;;;4.95;2.30;;;18.30;99.90;;;;;;5074641;28;20128;-71
2022/09/13 07:56:37;;;;;;;6.13;2.28;;;18.40;99.90;;;;;;5073643;28;20044;-71
2022/09/13 07:59:06;;;;;;;3.55;2.08;;;18.60;99.90;;;;;;5056802;28;20118;-70
2022/09/13 08:01:37;;;;;;;3.28;2.03;;;18.70;99.90;;;;;;5052940;28;20048;-71
2022/09/13 08:04:06;;;;;;;4.47;2.10;;;18.70;99.90;;;;;;5057348;28;20104;-70
2022/09/13 08:06:35;;;;;;;3.75;2.05;;;18.70;99.90;;;;;;5073824;28;20048;-70
2022/09/13 08:09:03;;;;;;;4.07;1.90;;;18.80;99.90;;;;;;5070738;28;20414;-69
2022/09/13 08:11:32;;;;;;;3.58;1.67;;;18.80;99.90;;;;;;5071306;28;20044;-69
2022/09/13 08:13:59;;;;;;;2.92;2.03;;;18.90;99.90;;;;;;5073342;28;20040;-69
2022/09/13 08:16:26;;;;;;;6.32;2.42;;;19.00;99.90;;;;;;5068491;28;20643;-69
2022/09/13 08:18:55;;;;;;;6.78;2.00;;;19.20;99.90;;;;;;5057010;28;20115;-69
2022/09/13 08:21:23;;;;;;;3.88;1.80;;;19.20;99.90;;;;;;5070566;28;20129;-70
2022/09/13 08:23:52;;;;;;;4.68;2.03;;;19.40;99.90;;;;;;5055084;28;20998;-68
2022/09/13 08:26:18;;;;;;;5.18;1.90;;;19.60;99.90;;;;;;5048525;28;20494;-68
2022/09/13 08:28:45;;;;;;;6.20;1.77;;;19.60;99.90;;;;;;5076357;28;20112;-70
2022/09/13 08:31:15;;;;;;;5.03;1.92;;;19.50;99.90;;;;;;5058685;28;20127;-69
2022/09/13 08:33:44;;;;;;;4.78;1.98;;;19.60;99.90;;;;;;5074249;28;20063;-68
2022/09/13 08:36:10;;;;;;;4.72;1.63;;;19.60;99.90;;;;;;5074068;28;20056;-69
2022/09/13 08:38:36;;;;;;;5.65;2.15;;;19.70;99.90;;;;;;5078170;28;20054;-68
2022/09/13 08:41:17;;;;;;;6.60;1.90;;;19.90;99.90;;;;;;5077113;28;20044;-68
2022/09/13 08:43:53;;;;;;;4.78;1.73;;;20.00;99.90;;;;;;5078713;28;20063;-68
2022/09/13 08:46:45;;;;;;;4.50;1.90;;;20.10;99.90;;;;;;5044883;28;20386;-69
2022/09/13 08:49:30;;;;;;;6.15;1.90;;;20.20;99.90;;;;;;5068337;28;20388;-70
2022/09/13 08:52:14;;;;;;;6.97;1.38;;;20.20;99.90;;;;;;5075478;28;20067;-70
2022/09/13 08:54:40;;;;;;;5.47;1.58;;;20.10;99.90;;;;;;5074473;28;20049;-72
2022/09/13 08:57:15;;;;;;;4.75;1.50;;;20.10;99.90;;;;;;5072390;28;20032;-71
2022/09/13 09:00:15;;;;;;;7.10;1.80;;;20.00;99.90;;;;;;5071838;28;20047;-71
2022/09/13 09:02:59;;;;;;;5.38;1.30;;;20.10;99.90;;;;;;5072717;28;20101;-71
2022/09/13 09:05:31;;;;;;;6.93;1.40;;;20.20;99.90;;;;;;5073549;28;20085;-70
2022/09/13 09:08:14;;;;;;;6.32;1.58;;;20.20;99.90;;;;;;5074914;28;20399;-71
2022/09/13 09:10:49;;;;;;;5.07;1.13;;;20.30;99.90;;;;;;5076003;28;20131;-72
2022/09/13 09:13:33;;;;;;;5.22;1.42;;;20.60;99.90;;;;;;5077656;28;20143;-71
2022/09/13 09:16:10;;;;;;;6.38;1.35;;;20.60;99.90;;;;;;5078826;28;20054;-71
2022/09/13 09:18:43;;;;;;;6.50;1.67;;;20.90;99.90;;;;;;5078886;28;20491;-71
2022/09/13 09:21:16;;;;;;;5.47;1.20;;;21.10;99.90;;;;;;5063396;28;20036;-71
2022/09/13 09:23:50;;;;;;;5.90;2.10;;;21.30;99.90;;;;;;5080466;28;20051;-72
2022/09/13 09:26:25;;;;;;;3.55;1.30;;;21.50;99.90;;;;;;5081019;28;20418;-71
2022/09/13 09:29:32;;;;;;;4.65;1.27;;;21.00;99.90;;;;;;5078432;28;20044;-72
2022/09/13 09:32:41;;;;;;;3.03;1.27;;;21.00;99.90;;;;;;5075311;28;20048;-71
2022/09/13 09:35:27;;;;;;;5.22;1.25;;;21.20;99.90;;;;;;5077156;28;20071;-72
2022/09/13 09:38:18;;;;;;;3.70;1.30;;;21.30;99.90;;;;;;5077282;28;20060;-71
2022/09/13 09:40:44;;;;;;;4.18;1.00;;;21.60;99.90;;;;;;5079069;28;21713;-71
2022/09/13 09:43:21;;;;;;;3.95;1.02;;;21.60;99.90;;;;;;5077774;28;20048;-71
2022/09/13 09:45:48;;;;;;;4.93;1.00;;;21.60;99.90;;;;;;5077782;28;20931;-71
2022/09/13 09:48:19;;;;;;;4.35;1.00;;;21.40;99.90;;;;;;5062835;28;20440;-71
2022/09/13 09:50:53;;;;;;;2.35;1.00;;;21.10;99.90;;;;;;5077370;28;20036;-71
2022/09/13 09:53:51;;;;;;;4.07;1.20;;;21.20;99.90;;;;;;5076823;28;20055;-72
2022/09/13 09:56:23;;;;;;;4.13;1.30;;;21.40;99.90;;;;;;5057971;28;20186;-72
2022/09/13 09:58:50;;;;;;;4.15;1.00;;;21.50;99.90;;;;;;5075838;28;20032;-72
2022/09/13 10:01:26;;;;;;;3.83;0.80;;;21.40;99.90;;;;;;5076638;28;20513;-72
2022/09/13 10:04:02;;;;;;;2.35;1.00;;;21.80;99.90;;;;;;5078137;28;20052;-71
2022/09/13 10:06:29;;;;;;;4.85;0.80;;;22.00;99.90;;;;;;5076862;28;20134;-72
2022/09/13 10:09:03;;;;;;;4.97;1.15;;;22.40;99.90;;;;;;5079654;28;20036;-71
2022/09/13 10:11:39;;;;;;;6.28;0.95;;;22.60;99.90;;;;;;5078904;28;20062;-74
2022/09/13 10:14:05;;;;;;;2.53;0.80;;;22.80;99.90;;;;;;5075774;28;20054;-72
2022/09/13 10:16:31;;;;;;;2.83;0.77;;;22.60;99.90;;;;;;5073242;28;20040;-70
2022/09/13 10:19:23;;;;;;;1.83;1.10;;;22.40;99.90;;;;;;5075668;28;20522;-72
2022/09/13 10:22:00;;;;;;;4.18;1.15;;;22.00;99.90;;;;;;5075402;28;20394;-71
2022/09/13 10:24:27;;;;;;;2.05;0.70;;;21.70;99.90;;;;;;5053772;28;20047;-71
2022/09/13 10:26:53;;;;;;;3.63;1.00;;;21.40;99.90;;;;;;5073919;28;20067;-71
2022/09/13 10:29:19;;;;;;;2.40;0.90;;;21.60;99.90;;;;;;5059251;28;20514;-71
2022/09/13 10:31:48;;;;;;;2.60;0.60;;;21.70;99.90;;;;;;5074529;28;20044;-71
2022/09/13 10:34:30;;;;;;;3.22;0.85;;;21.80;99.90;;;;;;5075682;28;20120;-72
2022/09/13 10:37:03;;;;;;;2.88;1.00;;;22.00;99.90;;;;;;5073888;28;20091;-70
2022/09/13 10:39:33;;;;;;;3.60;0.70;;;22.10;99.90;;;;;;5076950;28;20040;-72
2022/09/13 10:42:02;;;;;;;2.83;0.70;;;22.30;99.90;;;;;;5071626;28;20566;-70
2022/09/13 10:44:45;;;;;;;1.95;0.70;;;22.40;99.90;;;;;;5072136;28;20048;-72
2022/09/13 10:47:22;;;;;;;3.88;0.70;;;22.40;99.90;;;;;;5071280;28;20082;-72
2022/09/13 10:49:51;;;;;;;5.05;0.88;;;22.60;99.90;;;;;;5072914;28;20079;-71
2022/09/13 10:52:30;;;;;;;3.00;0.75;;;22.90;99.90;;;;;;5073440;28;20056;-70
2022/09/13 10:55:15;;;;;;;2.15;0.75;;;22.90;99.90;;;;;;5073663;28;20048;-71
2022/09/13 10:57:42;;;;;;;3.00;0.75;;;22.90;99.90;;;;;;5055822;28;20054;-72
2022/09/13 11:00:16;;;;;;;2.47;0.90;;;22.70;99.90;;;;;;5074511;28;20048;-72
2022/09/13 11:02:53;;;;;;;1.90;0.60;;;22.30;99.90;;;;;;5042603;28;20040;-71
2022/09/13 11:05:36;;;;;;;3.03;0.80;;;22.20;99.90;;;;;;5075849;28;20075;-72
2022/09/13 11:08:11;;;;;;;4.40;0.80;;;22.00;99.90;;;;;;5074052;28;20044;-72
2022/09/13 11:11:04;;;;;;;4.15;0.63;;;21.80;99.90;;;;;;5073954;28;20576;-71
2022/09/13 11:13:44;;;;;;;3.63;0.90;;;21.80;99.90;;;;;;5073373;28;20052;-73
2022/09/13 11:16:25;;;;;;;2.33;0.65;;;22.00;99.90;;;;;;5076689;28;20067;-71
2022/09/13 11:19:09;;;;;;;3.30;0.40;;;22.20;99.90;;;;;;5078426;28;20044;-72
2022/09/13 11:22:02;;;;;;;1.73;1.15;;;22.40;99.90;;;;;;5076083;28;20040;-71
2022/09/13 11:24:46;;;;;;;3.35;0.85;;;22.50;99.90;;;;;;5073930;28;20044;-72
2022/09/13 11:27:27;;;;;;;1.35;0.50;;;22.60;99.90;;;;;;5068944;28;20597;-71
2022/09/13 11:29:59;;;;;;;2.38;0.60;;;22.90;99.90;;;;;;5077100;28;21740;-71
2022/09/13 11:32:59;;;;;;;2.13;0.70;;;23.10;99.90;;;;;;5076791;28;20090;-71
2022/09/13 11:35:49;;;;;;;2.38;0.70;;;23.30;99.90;;;;;;5037226;28;20079;-71
2022/09/13 11:38:40;;;;;;;5.15;0.80;;;23.40;99.90;;;;;;5078911;28;20114;-72
2022/09/13 11:41:27;;;;;;;2.70;1.02;;;23.40;99.90;;;;;;5054863;28;20089;-72
2022/09/13 11:43:52;;;;;;;4.17;1.03;;;23.20;99.90;;;;;;5074376;28;20052;-72
2022/09/13 11:46:38;;;;;;;4.72;1.10;;;22.90;99.90;;;;;;5076230;28;20525;-71
2022/09/13 11:49:41;;;;;;;2.40;0.70;;;22.50;99.90;;;;;;5076286;28;20044;-71
2022/09/13 11:52:38;;;;;;;2.35;0.73;;;22.60;99.90;;;;;;5077869;28;20495;-71
2022/09/13 11:55:42;;;;;;;1.88;0.80;;;22.30;99.90;;;;;;5076775;28;20044;-72
2022/09/13 11:58:24;;;;;;;2.67;0.50;;;22.30;99.90;;;;;;5063650;28;20054;-72
2022/09/13 12:01:05;;;;;;;2.05;0.82;;;22.30;99.90;;;;;;5077259;28;20051;-71
2022/09/13 12:03:49;;;;;;;1.38;0.80;;;22.50;99.90;;;;;;5063814;28;20520;-72
2022/09/13 12:06:39;;;;;;;2.92;0.70;;;22.60;99.90;;;;;;5080385;28;20527;-71
2022/09/13 12:09:20;;;;;;;2.42;0.60;;;22.80;99.90;;;;;;5079641;28;20063;-71
2022/09/13 12:12:09;;;;;;;3.25;0.50;;;22.90;99.90;;;;;;5080481;28;20036;-71
2022/09/13 12:14:58;;;;;;;1.55;0.60;;;23.00;99.90;;;;;;5049392;28;20072;-71
2022/09/13 12:17:43;;;;;;;1.30;0.55;;;23.00;99.90;;;;;;5049555;28;20048;-73
2022/09/13 12:20:16;;;;;;;2.90;0.60;;;23.00;99.90;;;;;;5080808;28;20048;-72
2022/09/13 12:22:44;;;;;;;4.05;0.90;;;23.00;99.90;;;;;;5081180;28;20128;-71
2022/09/13 12:25:27;;;;;;;2.35;1.00;;;22.70;99.90;;;;;;5082889;28;20151;-72
2022/09/13 12:28:12;;;;;;;3.75;1.10;;;22.70;99.90;;;;;;5081235;28;20047;-72
2022/09/13 12:30:50;;;;;;;4.13;1.00;;;22.60;99.90;;;;;;5061161;28;20043;-71
2022/09/13 12:33:16;;;;;;;2.60;0.52;;;23.00;99.90;;;;;;5079653;28;20063;-71
2022/09/13 12:36:03;;;;;;;1.95;0.80;;;23.10;99.90;;;;;;5081056;28;20040;-71
2022/09/13 12:39:01;;;;;;;2.58;0.63;;;23.10;99.90;;;;;;5082875;28;20059;-71
2022/09/13 12:42:08;;;;;;;2.15;1.10;;;23.10;99.90;;;;;;5081119;28;20036;-71
2022/09/13 12:44:52;;;;;;;3.58;0.85;;;23.30;99.90;;;;;;5081702;28;20036;-71
2022/09/13 12:47:33;;;;;;;3.08;0.75;;;23.10;99.90;;;;;;5081339;28;20483;-71
2022/09/13 12:50:34;;;;;;;0.88;0.45;;;23.30;99.90;;;;;;5079217;28;20040;-72
2022/09/13 12:53:19;;;;;;;3.20;0.70;;;23.40;99.90;;;;;;5063335;28;20067;-71
2022/09/13 12:56:08;;;;;;;2.67;0.70;;;23.50;99.90;;;;;;5079908;28;20045;-71
2022/09/13 12:58:52;;;;;;;1.90;0.75;;;23.20;99.90;;;;;;5083235;28;20089;-71
2022/09/13 13:01:24;;;;;;;3.20;0.88;;;23.00;99.90;;;;;;5081052;28;20098;-72
2022/09/13 13:04:02;;;;;;;2.47;0.50;;;23.20;99.90;;;;;;5079992;28;20094;-71
2022/09/13 13:06:37;;;;;;;2.83;0.70;;;23.00;99.90;;;;;;5080422;28;20048;-71
2022/09/13 13:09:33;;;;;;;1.65;0.60;;;22.80;99.90;;;;;;5081008;28;20055;-71
2022/09/13 13:11:59;;;;;;;2.90;0.90;;;22.90;99.90;;;;;;5075616;28;20040;-72